Terminal Aerodrome Forecast
Issued by NWS Charleston, WV

Home | Current Version | Previous Version | Text Only | Print | Product List | Glossary On
Versions: 1 2 3 4 5 6 7 8 9 10 11 12 13 14 15 16 17 18 19 20 21 22 23
000
FTUS41 KRLX 261723
TAFCRW
TAF
KCRW 261723Z 2618/2718 17012G20KT P6SM BKN050
     FM262100 17008KT P6SM VCTS OVC040CB
      TEMPO 2621/2701 4SM SHRA BR OVC025
     FM270300 19005KT 6SM SHRA BR OVC050
     FM270600 20005KT P6SM BKN040
     FM271100 00000KT P6SM OVC040=

USA.gov is the U.S. government's official web portal to all federal, state and local government web resources and services.